createdAt,value
2018-10-07T00:00:58.280Z,15.61
2018-10-07T00:03:28.511Z,15.70
2018-10-07T00:05:58.713Z,15.70
2018-10-07T00:08:28.903Z,15.68
2018-10-07T00:10:59.122Z,15.69
2018-10-07T00:13:29.313Z,15.73
2018-10-07T00:15:59.513Z,15.69
2018-10-07T00:18:29.701Z,15.66
2018-10-07T00:20:59.947Z,15.64
2018-10-07T00:23:30.137Z,15.76
2018-10-07T00:26:00.313Z,15.78
2018-10-07T00:28:30.484Z,15.76
2018-10-07T00:31:00.680Z,15.78
2018-10-07T00:33:30.837Z,15.69
2018-10-07T00:36:01.088Z,15.60
2018-10-07T00:38:31.281Z,15.58
2018-10-07T00:41:01.520Z,15.54
2018-10-07T00:43:31.677Z,15.43
2018-10-07T00:46:01.850Z,15.34
2018-10-07T00:48:32.006Z,15.53
2018-10-07T00:51:02.193Z,15.67
2018-10-07T00:53:32.407Z,15.73
2018-10-07T00:56:02.642Z,15.69
2018-10-07T00:58:32.866Z,15.72
2018-10-07T01:01:03.087Z,15.78
2018-10-07T01:03:33.255Z,15.78
2018-10-07T01:06:03.431Z,15.78
2018-10-07T01:08:33.610Z,15.78
2018-10-07T01:11:03.891Z,15.65
2018-10-07T01:13:34.048Z,15.65
2018-10-07T01:16:04.292Z,15.61
2018-10-07T01:18:34.455Z,15.49
2018-10-07T01:21:04.680Z,15.30
2018-10-07T01:23:35.106Z,15.45
2018-10-07T01:26:05.336Z,15.40
2018-10-07T01:28:35.548Z,15.34
2018-10-07T01:31:05.884Z,15.34
2018-10-07T01:33:36.078Z,15.22
2018-10-07T01:36:06.318Z,15.17
2018-10-07T01:38:36.494Z,15.37
2018-10-07T01:41:06.773Z,15.37
2018-10-07T01:43:36.938Z,15.50
2018-10-07T01:46:07.222Z,15.54
2018-10-07T01:48:37.416Z,15.42
2018-10-07T01:51:07.715Z,15.52
2018-10-07T01:53:37.901Z,15.36
2018-10-07T01:56:08.206Z,15.35
2018-10-07T01:58:38.379Z,15.37
2018-10-07T02:01:08.665Z,15.33
2018-10-07T02:03:38.847Z,15.36
2018-10-07T02:06:09.126Z,15.33
2018-10-07T02:08:39.302Z,15.35
2018-10-07T02:11:09.499Z,15.35
2018-10-07T02:13:39.722Z,15.37
2018-10-07T02:16:09.927Z,15.39
2018-10-07T02:18:40.093Z,15.33
2018-10-07T02:21:10.306Z,15.35
2018-10-07T02:23:40.515Z,15.40
2018-10-07T02:26:10.740Z,15.37
2018-10-07T02:28:40.933Z,15.45
2018-10-07T02:31:11.161Z,15.41
2018-10-07T02:33:41.400Z,15.33
2018-10-07T02:36:11.608Z,15.33
2018-10-07T02:38:41.842Z,15.34
2018-10-07T02:41:12.006Z,15.26
2018-10-07T02:43:42.195Z,15.29
2018-10-07T02:46:12.389Z,15.19
2018-10-07T02:48:42.572Z,15.16
2018-10-07T02:51:13.263Z,15.20
2018-10-07T02:53:43.483Z,15.15
2018-10-07T02:56:13.725Z,15.05
2018-10-07T02:58:44.069Z,15.02
2018-10-07T03:01:14.275Z,15.07
2018-10-07T03:03:44.472Z,15.10
2018-10-07T03:06:14.666Z,15.10
2018-10-07T03:08:44.886Z,15.11
2018-10-07T03:11:15.087Z,15.08
2018-10-07T03:13:45.273Z,15.08
2018-10-07T03:16:15.531Z,15.05
2018-10-07T03:18:45.730Z,15.04
2018-10-07T03:21:15.935Z,15.07
2018-10-07T03:23:46.123Z,15.12
2018-10-07T03:26:16.303Z,15.09
2018-10-07T03:28:46.467Z,15.11
2018-10-07T03:31:16.656Z,15.08
2018-10-07T03:33:46.918Z,15.07
2018-10-07T03:36:17.122Z,15.11
2018-10-07T03:38:47.345Z,15.12
2018-10-07T03:41:17.612Z,15.14
2018-10-07T03:43:47.783Z,15.16
2018-10-07T03:46:17.972Z,15.26
2018-10-07T03:48:48.176Z,15.18
2018-10-07T03:51:18.408Z,15.19
2018-10-07T03:53:48.578Z,15.16
2018-10-07T03:56:18.790Z,15.39
2018-10-07T03:58:48.989Z,15.31
2018-10-07T04:01:19.212Z,15.21
2018-10-07T04:03:49.448Z,15.07
2018-10-07T04:06:19.636Z,15.15
2018-10-07T04:08:49.825Z,15.07
2018-10-07T04:11:20.046Z,15.02
2018-10-07T04:13:50.211Z,15.06
2018-10-07T04:16:20.463Z,14.95
2018-10-07T04:18:50.696Z,14.92
2018-10-07T04:21:20.924Z,15.06
2018-10-07T04:23:51.125Z,15.09
2018-10-07T04:26:21.350Z,15.08
2018-10-07T04:28:51.533Z,15.11
2018-10-07T04:31:21.742Z,15.06
2018-10-07T04:33:51.918Z,15.11
2018-10-07T04:36:22.178Z,15.12
2018-10-07T04:38:52.338Z,15.12
2018-10-07T04:41:22.551Z,15.10
2018-10-07T04:43:52.734Z,15.07
2018-10-07T04:46:23.026Z,15.14
2018-10-07T04:48:53.086Z,15.08
2018-10-07T04:51:23.288Z,15.00
2018-10-07T04:53:53.460Z,15.08
2018-10-07T04:56:23.676Z,14.80
2018-10-07T04:58:53.963Z,15.00
2018-10-07T05:01:24.256Z,14.93
2018-10-07T05:03:54.406Z,15.04
2018-10-07T05:06:28.199Z,15.14
2018-10-07T05:08:59.688Z,14.99
2018-10-07T05:11:30.749Z,14.97
2018-10-07T05:14:00.982Z,14.93
2018-10-07T05:16:38.454Z,15.04
2018-10-07T05:19:08.704Z,15.09
2018-10-07T05:21:38.909Z,14.99
2018-10-07T05:24:09.121Z,14.99
2018-10-07T05:26:39.318Z,14.87
2018-10-07T05:29:09.544Z,14.89
2018-10-07T05:31:39.774Z,14.95
2018-10-07T05:34:09.982Z,15.04
2018-10-07T05:36:40.208Z,15.01
2018-10-07T05:39:11.923Z,15.05
2018-10-07T05:41:42.314Z,14.94
2018-10-07T05:44:12.578Z,14.98
2018-10-07T05:46:42.784Z,15.02
2018-10-07T05:49:12.963Z,14.85
2018-10-07T05:51:43.212Z,14.95
2018-10-07T05:54:13.417Z,15.03
2018-10-07T05:56:43.629Z,15.04
2018-10-07T05:59:13.890Z,15.10
2018-10-07T06:01:45.675Z,15.13
2018-10-07T06:04:34.138Z,15.04
2018-10-07T06:07:05.087Z,15.05
2018-10-07T06:09:36.669Z,15.09
2018-10-07T06:12:07.212Z,15.07
2018-10-07T06:14:54.182Z,15.07
2018-10-07T06:17:24.346Z,15.07
2018-10-07T06:19:54.576Z,15.03
2018-10-07T06:22:25.128Z,15.04
2018-10-07T06:25:01.492Z,15.13
2018-10-07T06:27:31.744Z,15.19
2018-10-07T06:30:02.092Z,15.17
2018-10-07T06:32:32.156Z,15.16
2018-10-07T06:35:02.379Z,15.14
2018-10-07T06:37:32.608Z,15.15
2018-10-07T06:40:02.878Z,15.11
2018-10-07T06:42:33.080Z,15.16
2018-10-07T06:45:03.347Z,15.23
2018-10-07T06:47:33.598Z,15.09
2018-10-07T06:50:03.932Z,14.92
2018-10-07T06:52:34.104Z,15.06
2018-10-07T06:55:06.682Z,14.94
2018-10-07T06:57:37.048Z,14.98
2018-10-07T07:00:08.617Z,15.20
2018-10-07T07:02:38.949Z,15.29
2018-10-07T07:05:15.964Z,15.34
2018-10-07T07:07:46.157Z,15.41
2018-10-07T07:10:16.408Z,15.24
2018-10-07T07:12:46.664Z,15.28
2018-10-07T07:15:16.934Z,15.32
2018-10-07T07:17:47.172Z,15.37
2018-10-07T07:20:17.394Z,15.39
2018-10-07T07:22:47.611Z,15.39
2018-10-07T07:25:17.796Z,15.46
2018-10-07T07:27:48.068Z,15.42
2018-10-07T07:30:18.241Z,15.37
2018-10-07T07:32:48.537Z,15.41
2018-10-07T07:35:18.741Z,15.41
2018-10-07T07:37:49.256Z,15.40
2018-10-07T07:40:19.485Z,15.45
2018-10-07T07:42:49.708Z,15.50
2018-10-07T07:45:19.961Z,15.50
2018-10-07T07:47:50.225Z,15.52
2018-10-07T07:50:20.417Z,15.56
2018-10-07T07:52:50.914Z,15.59
2018-10-07T07:55:27.757Z,15.59
2018-10-07T07:57:58.019Z,15.68
2018-10-07T08:00:28.261Z,15.72
2018-10-07T08:02:58.639Z,15.83
2018-10-07T08:05:29.085Z,15.87
2018-10-07T08:07:59.289Z,15.87
2018-10-07T08:10:29.545Z,15.97
2018-10-07T08:12:59.780Z,16.03
2018-10-07T08:15:30.035Z,16.20
2018-10-07T08:18:00.292Z,16.26
2018-10-07T08:20:30.520Z,15.92
2018-10-07T08:23:00.720Z,16.27
2018-10-07T08:25:31.811Z,16.27
2018-10-07T08:28:01.998Z,16.44
2018-10-07T08:30:32.259Z,16.67
2018-10-07T08:33:02.511Z,16.78
2018-10-07T08:35:32.713Z,16.78
2018-10-07T08:38:03.075Z,16.88
2018-10-07T08:40:33.290Z,17.04
2018-10-07T08:43:03.589Z,17.21
2018-10-07T08:45:33.769Z,17.46
2018-10-07T08:48:04.026Z,17.19
2018-10-07T08:52:10.157Z,17.14
2018-10-07T08:54:40.470Z,17.12
2018-10-07T08:57:10.835Z,17.26
2018-10-07T08:59:41.124Z,17.17
2018-10-07T09:02:11.375Z,17.22
2018-10-07T09:04:41.654Z,17.40
2018-10-07T09:07:11.890Z,17.32
2018-10-07T09:09:42.145Z,17.49
2018-10-07T09:12:12.387Z,17.55
2018-10-07T09:14:42.641Z,17.26
2018-10-07T09:17:12.831Z,17.40
2018-10-07T09:19:43.135Z,17.50
2018-10-07T09:22:13.483Z,17.65
2018-10-07T09:24:43.740Z,17.46
2018-10-07T09:27:14.118Z,17.56
2018-10-07T09:29:44.954Z,17.79
2018-10-07T09:32:15.312Z,17.82
2018-10-07T09:34:45.485Z,17.97
2018-10-07T09:37:15.685Z,17.91
2018-10-07T09:39:45.986Z,17.86
2018-10-07T09:42:16.243Z,17.93
2018-10-07T09:44:46.459Z,17.82
2018-10-07T09:47:16.713Z,18.19
2018-10-07T09:49:46.977Z,18.18
2018-10-07T09:52:17.247Z,17.97
2018-10-07T09:54:47.547Z,18.11
2018-10-07T09:57:17.870Z,18.32
2018-10-07T09:59:48.113Z,18.16
2018-10-07T10:02:18.462Z,18.12
2018-10-07T10:04:48.705Z,18.13
2018-10-07T10:07:18.961Z,18.15
2018-10-07T10:09:49.215Z,18.35
2018-10-07T10:12:19.469Z,18.34
2018-10-07T10:14:49.799Z,18.19
2018-10-07T10:17:23.020Z,18.37
2018-10-07T10:20:01.435Z,18.24
2018-10-07T10:22:55.021Z,18.41
2018-10-07T10:25:32.067Z,18.43
2018-10-07T10:28:17.873Z,18.70
2018-10-07T10:31:24.779Z,18.49
2018-10-07T10:36:13.428Z,18.65
2018-10-07T10:38:57.010Z,18.72
2018-10-07T10:41:34.511Z,18.63
2018-10-07T10:44:16.680Z,18.94
2018-10-07T10:47:49.755Z,18.99
2018-10-07T10:50:45.332Z,18.60
2018-10-07T10:53:26.459Z,18.57
2018-10-07T10:56:22.460Z,18.68
2018-10-07T10:59:10.620Z,18.81
2018-10-07T11:02:01.764Z,18.99
2018-10-07T11:04:43.687Z,19.05
2018-10-07T11:09:27.956Z,18.56
2018-10-07T11:12:09.208Z,18.68
2018-10-07T11:15:59.298Z,18.55
2018-10-07T11:18:59.964Z,18.92
2018-10-07T11:22:19.930Z,19.11
2018-10-07T11:25:02.813Z,18.98
2018-10-07T11:28:44.257Z,18.98
2018-10-07T11:31:26.200Z,18.98
2018-10-07T11:34:14.111Z,19.23
2018-10-07T11:37:01.139Z,19.03
2018-10-07T11:40:13.229Z,19.25
2018-10-07T11:42:52.252Z,19.53
2018-10-07T11:45:31.475Z,19.22
2018-10-07T11:48:19.854Z,19.23
2018-10-07T11:51:35.409Z,19.25
2018-10-07T11:54:09.537Z,19.42
2018-10-07T11:56:40.138Z,19.48
2018-10-07T11:59:10.371Z,19.74
2018-10-07T12:01:40.696Z,19.32
2018-10-07T12:04:10.968Z,19.41
2018-10-07T12:06:41.243Z,19.30
2018-10-07T12:09:11.466Z,19.37
2018-10-07T12:11:41.633Z,19.31
2018-10-07T12:14:11.887Z,19.22
2018-10-07T12:16:42.215Z,19.24
2018-10-07T12:19:12.435Z,19.06
2018-10-07T12:21:42.692Z,19.33
2018-10-07T12:24:12.962Z,19.60
2018-10-07T12:26:43.262Z,19.16
2018-10-07T12:29:13.528Z,19.19
2018-10-07T12:31:43.798Z,19.32
2018-10-07T12:34:14.212Z,18.96
2018-10-07T12:36:44.591Z,19.41
2018-10-07T12:39:14.826Z,19.21
2018-10-07T12:41:45.082Z,19.30
2018-10-07T12:44:15.368Z,19.14
2018-10-07T12:46:45.601Z,19.22
2018-10-07T12:49:16.325Z,19.19
2018-10-07T12:51:46.536Z,19.16
2018-10-07T12:54:16.800Z,19.24
2018-10-07T12:56:47.022Z,19.44
2018-10-07T12:59:17.273Z,19.39
2018-10-07T13:01:47.582Z,19.76
2018-10-07T13:04:17.865Z,19.78
2018-10-07T13:06:48.127Z,19.88
2018-10-07T13:09:18.318Z,19.79
2018-10-07T13:11:48.568Z,19.66
2018-10-07T13:14:18.794Z,19.98
2018-10-07T13:16:49.033Z,20.06
2018-10-07T13:19:19.336Z,19.88
2018-10-07T13:21:49.613Z,20.25
2018-10-07T13:24:19.825Z,19.87
2018-10-07T13:26:50.136Z,19.78
2018-10-07T13:29:20.320Z,19.66
2018-10-07T13:31:50.565Z,19.53
2018-10-07T13:34:20.772Z,19.63
2018-10-07T13:36:51.010Z,19.72
2018-10-07T13:39:21.296Z,19.92
2018-10-07T13:41:51.519Z,20.12
2018-10-07T13:44:21.934Z,19.72
2018-10-07T13:46:52.120Z,19.84
2018-10-07T13:49:22.390Z,19.81
2018-10-07T13:51:52.726Z,19.90
2018-10-07T13:54:23.120Z,19.81
2018-10-07T13:56:53.398Z,19.84
2018-10-07T13:59:23.608Z,19.73
2018-10-07T14:01:53.917Z,19.52
2018-10-07T14:04:24.226Z,19.35
2018-10-07T14:06:54.429Z,19.36
2018-10-07T14:09:24.781Z,19.35
2018-10-07T14:11:54.984Z,19.43
2018-10-07T14:14:25.305Z,19.49
2018-10-07T14:16:55.518Z,19.66
2018-10-07T14:19:25.810Z,19.77
2018-10-07T14:21:56.042Z,20.02
2018-10-07T14:24:26.336Z,19.63
2018-10-07T14:26:56.510Z,19.61
2018-10-07T14:29:26.726Z,19.49
2018-10-07T14:31:57.014Z,19.58
2018-10-07T14:34:27.254Z,19.68
2018-10-07T14:36:57.508Z,19.68
2018-10-07T14:39:27.730Z,19.48
2018-10-07T14:41:57.944Z,19.64
2018-10-07T14:44:28.181Z,19.76
2018-10-07T14:46:58.341Z,19.90
2018-10-07T14:49:28.608Z,19.66
2018-10-07T14:51:58.870Z,19.64
2018-10-07T14:54:29.127Z,19.64
2018-10-07T14:56:59.468Z,19.61
2018-10-07T14:59:29.765Z,19.40
2018-10-07T15:02:00.006Z,19.34
2018-10-07T15:04:30.210Z,19.45
2018-10-07T15:07:00.409Z,19.37
2018-10-07T15:09:30.702Z,19.30
2018-10-07T15:12:00.952Z,19.27
2018-10-07T15:14:31.215Z,19.21
2018-10-07T15:17:01.522Z,19.22
2018-10-07T15:19:31.906Z,19.28
2018-10-07T15:22:02.136Z,19.17
2018-10-07T15:24:32.418Z,19.11
2018-10-07T15:27:02.651Z,19.10
2018-10-07T15:29:33.073Z,19.10
2018-10-07T15:32:03.371Z,19.14
2018-10-07T15:34:33.655Z,19.07
2018-10-07T15:37:04.077Z,19.15
2018-10-07T15:39:34.416Z,19.06
2018-10-07T15:42:04.660Z,19.19
2018-10-07T15:44:34.855Z,18.97
2018-10-07T15:47:05.517Z,18.96
2018-10-07T15:49:35.846Z,18.83
2018-10-07T15:52:06.212Z,18.88
2018-10-07T15:54:36.620Z,18.97
2018-10-07T15:57:07.001Z,19.00
2018-10-07T15:59:37.295Z,19.01
2018-10-07T16:02:07.571Z,18.98
2018-10-07T16:04:37.771Z,18.96
2018-10-07T16:07:07.953Z,18.97
2018-10-07T16:09:38.465Z,18.91
2018-10-07T16:12:08.980Z,18.87
2018-10-07T16:14:39.214Z,18.84
2018-10-07T16:17:09.494Z,18.77
2018-10-07T16:19:39.767Z,18.63
2018-10-07T16:22:10.004Z,18.57
2018-10-07T16:24:43.199Z,18.59
2018-10-07T16:27:13.508Z,18.65
2018-10-07T16:29:43.749Z,18.68
2018-10-07T16:32:14.138Z,18.63
2018-10-07T16:34:44.269Z,18.54
2018-10-07T16:37:14.505Z,18.51
2018-10-07T16:39:44.737Z,18.60
2018-10-07T16:42:15.027Z,18.50
2018-10-07T16:44:45.287Z,18.42
2018-10-07T16:47:15.519Z,18.57
2018-10-07T16:49:45.785Z,18.43
2018-10-07T16:52:15.990Z,18.29
2018-10-07T16:54:46.295Z,18.12
2018-10-07T16:57:16.499Z,18.11
2018-10-07T16:59:46.740Z,18.08
2018-10-07T17:02:16.913Z,18.01
2018-10-07T17:04:47.209Z,18.09
2018-10-07T17:07:17.365Z,18.01
2018-10-07T17:09:47.609Z,17.79
2018-10-07T17:12:17.859Z,17.89
2018-10-07T17:14:48.073Z,17.89
2018-10-07T17:17:18.279Z,17.68
2018-10-07T17:19:48.475Z,17.76
2018-10-07T17:22:18.729Z,17.47
2018-10-07T17:24:49.013Z,17.53
2018-10-07T17:27:19.215Z,17.61
2018-10-07T17:29:49.517Z,17.28
2018-10-07T17:32:19.806Z,17.50
2018-10-07T17:34:50.044Z,17.36
2018-10-07T17:37:20.297Z,17.52
2018-10-07T17:39:50.599Z,17.43
2018-10-07T17:42:20.812Z,17.38
2018-10-07T17:44:51.067Z,17.20
2018-10-07T17:47:21.311Z,17.20
2018-10-07T17:49:51.540Z,17.25
2018-10-07T17:52:21.790Z,17.26
2018-10-07T17:54:52.105Z,17.28
2018-10-07T17:57:22.295Z,17.22
2018-10-07T17:59:52.537Z,17.18
2018-10-07T18:02:22.759Z,17.12
2018-10-07T18:04:52.994Z,17.00
2018-10-07T18:07:23.409Z,16.98
2018-10-07T18:09:53.653Z,16.97
2018-10-07T18:12:24.051Z,16.96
2018-10-07T18:14:54.323Z,16.92
2018-10-07T18:17:24.601Z,16.90
2018-10-07T18:19:54.943Z,16.74
2018-10-07T18:22:25.195Z,16.80
2018-10-07T18:24:55.500Z,16.63
2018-10-07T18:27:25.656Z,16.65
2018-10-07T18:29:55.880Z,16.57
2018-10-07T18:32:26.101Z,16.46
2018-10-07T18:34:56.249Z,16.42
2018-10-07T18:37:26.483Z,16.32
2018-10-07T18:39:56.796Z,16.06
2018-10-07T18:42:26.946Z,16.19
2018-10-07T18:44:57.179Z,16.13
2018-10-07T18:47:27.418Z,16.08
2018-10-07T18:49:57.583Z,16.12
2018-10-07T18:52:28.943Z,16.03
2018-10-07T18:54:59.083Z,16.11
2018-10-07T18:57:29.203Z,16.09
2018-10-07T19:00:00.315Z,15.97
2018-10-07T19:02:30.723Z,15.91
2018-10-07T19:05:00.812Z,15.96
2018-10-07T19:07:31.012Z,16.02
2018-10-07T19:10:01.172Z,15.90
2018-10-07T19:12:31.439Z,15.87
2018-10-07T19:15:01.693Z,15.80
2018-10-07T19:17:31.802Z,15.77
2018-10-07T19:20:01.965Z,15.68
2018-10-07T19:22:32.262Z,15.64
2018-10-07T19:25:02.475Z,15.66
2018-10-07T19:27:32.627Z,15.55
2018-10-07T19:30:02.820Z,15.59
2018-10-07T19:32:32.976Z,15.42
2018-10-07T19:35:03.096Z,15.47
2018-10-07T19:37:33.369Z,15.45
2018-10-07T19:40:03.547Z,15.47
2018-10-07T19:42:33.736Z,15.53
2018-10-07T19:45:04.064Z,15.48
2018-10-07T19:47:34.326Z,15.33
2018-10-07T19:50:04.655Z,15.33
2018-10-07T19:52:34.904Z,15.30
2018-10-07T19:55:05.212Z,15.17
2018-10-07T19:57:35.457Z,15.04
2018-10-07T20:00:05.814Z,15.10
2018-10-07T20:02:35.994Z,14.96
2018-10-07T20:05:06.372Z,15.00
2018-10-07T20:07:36.617Z,15.08
2018-10-07T20:10:06.839Z,15.06
2018-10-07T20:12:37.023Z,15.02
2018-10-07T20:15:07.325Z,14.96
2018-10-07T20:17:37.520Z,14.99
2018-10-07T20:20:07.849Z,15.02
2018-10-07T20:22:38.029Z,14.98
2018-10-07T20:25:08.270Z,15.02
2018-10-07T20:27:38.506Z,14.96
2018-10-07T20:30:08.759Z,14.95
2018-10-07T20:32:38.960Z,14.90
2018-10-07T20:35:09.266Z,14.90
2018-10-07T20:37:39.503Z,14.81
2018-10-07T20:40:09.765Z,14.86
2018-10-07T20:42:39.921Z,14.78
2018-10-07T20:45:10.140Z,14.70
2018-10-07T20:47:40.368Z,14.70
2018-10-07T20:50:10.588Z,14.66
2018-10-07T20:52:40.811Z,14.61
2018-10-07T20:55:10.986Z,14.59
2018-10-07T20:57:41.210Z,14.57
2018-10-07T21:00:11.421Z,14.55
2018-10-07T21:02:41.652Z,14.57
2018-10-07T21:05:11.840Z,14.30
2018-10-07T21:07:42.034Z,14.21
2018-10-07T21:10:12.261Z,14.16
2018-10-07T21:12:49.019Z,14.07
2018-10-07T21:15:19.273Z,14.12
2018-10-07T21:17:49.571Z,14.09
2018-10-07T21:20:19.779Z,14.09
2018-10-07T21:22:50.025Z,14.11
2018-10-07T21:25:20.339Z,14.13
2018-10-07T21:27:50.577Z,14.14
2018-10-07T21:30:20.808Z,14.16
2018-10-07T21:32:50.978Z,13.99
2018-10-07T21:35:21.206Z,13.95
2018-10-07T21:37:51.393Z,13.90
2018-10-07T21:40:21.650Z,13.91
2018-10-07T21:42:51.849Z,13.81
2018-10-07T21:45:22.106Z,13.83
2018-10-07T21:47:52.277Z,13.71
2018-10-07T21:50:22.462Z,13.67
2018-10-07T21:52:52.689Z,13.70
2018-10-07T21:55:22.868Z,13.57
2018-10-07T21:57:53.043Z,13.45
2018-10-07T22:00:23.267Z,13.38
2018-10-07T22:02:53.430Z,13.42
2018-10-07T22:05:23.665Z,13.35
2018-10-07T22:07:53.873Z,13.29
2018-10-07T22:10:24.079Z,13.37
2018-10-07T22:12:54.253Z,13.18
2018-10-07T22:15:24.489Z,13.01
2018-10-07T22:17:54.661Z,13.23
2018-10-07T22:20:24.859Z,13.27
2018-10-07T22:22:55.049Z,13.18
2018-10-07T22:25:25.269Z,13.21
2018-10-07T22:27:55.463Z,13.24
2018-10-07T22:30:27.088Z,13.26
2018-10-07T22:32:57.271Z,13.27
2018-10-07T22:35:27.499Z,13.20
2018-10-07T22:37:57.712Z,13.10
2018-10-07T22:40:27.873Z,13.04
2018-10-07T22:42:58.099Z,13.03
2018-10-07T22:45:28.295Z,13.05
2018-10-07T22:47:58.459Z,13.11
2018-10-07T22:50:28.640Z,13.30
2018-10-07T22:52:58.844Z,13.24
2018-10-07T22:55:29.011Z,13.26
2018-10-07T22:57:59.181Z,13.31
2018-10-07T23:00:29.389Z,13.16
2018-10-07T23:02:59.527Z,13.07
2018-10-07T23:05:29.701Z,13.06
2018-10-07T23:07:59.894Z,13.16
2018-10-07T23:10:30.059Z,13.05
2018-10-07T23:13:00.307Z,12.99
2018-10-07T23:15:30.463Z,12.85
2018-10-07T23:18:00.658Z,12.92
2018-10-07T23:20:30.845Z,13.01
2018-10-07T23:23:01.079Z,12.93
2018-10-07T23:25:31.285Z,12.77
2018-10-07T23:28:01.475Z,12.79
2018-10-07T23:30:31.693Z,12.79
2018-10-07T23:33:01.884Z,12.75
2018-10-07T23:35:32.067Z,12.56
2018-10-07T23:38:02.250Z,12.50
2018-10-07T23:40:32.446Z,12.67
2018-10-07T23:43:02.620Z,12.63
2018-10-07T23:45:32.814Z,12.75
2018-10-07T23:48:02.960Z,12.72
2018-10-07T23:50:33.090Z,12.49
2018-10-07T23:53:03.292Z,12.64
2018-10-07T23:55:33.470Z,12.51
2018-10-07T23:58:03.660Z,12.59
